sensor_id;sensor_type;location;lat;lon;timestamp;P1;durP1;ratioP1;P2;durP2;ratioP2
23376;SDS011;14353;46.070;13.222;2023-02-23T00:01:35;10.60;;;9.50;;
23376;SDS011;14353;46.070;13.222;2023-02-23T00:04:01;10.55;;;9.45;;
23376;SDS011;14353;46.070;13.222;2023-02-23T00:06:28;9.93;;;8.88;;
23376;SDS011;14353;46.070;13.222;2023-02-23T00:08:54;11.05;;;9.85;;
23376;SDS011;14353;46.070;13.222;2023-02-23T00:11:22;10.02;;;9.02;;
23376;SDS011;14353;46.070;13.222;2023-02-23T00:13:48;11.07;;;9.63;;
23376;SDS011;14353;46.070;13.222;2023-02-23T00:16:15;10.85;;;9.65;;
23376;SDS011;14353;46.070;13.222;2023-02-23T00:18:44;10.32;;;9.27;;
23376;SDS011;14353;46.070;13.222;2023-02-23T00:21:22;10.05;;;9.00;;
23376;SDS011;14353;46.070;13.222;2023-02-23T00:26:20;10.77;;;9.30;;
23376;SDS011;14353;46.070;13.222;2023-02-23T00:28:48;10.82;;;9.73;;
23376;SDS011;14353;46.070;13.222;2023-02-23T00:31:15;10.45;;;9.38;;
23376;SDS011;14353;46.070;13.222;2023-02-23T00:33:41;10.32;;;9.20;;
23376;SDS011;14353;46.070;13.222;2023-02-23T00:36:08;10.93;;;9.80;;
23376;SDS011;14353;46.070;13.222;2023-02-23T00:38:36;10.80;;;9.70;;
23376;SDS011;14353;46.070;13.222;2023-02-23T00:41:14;11.23;;;9.95;;
23376;SDS011;14353;46.070;13.222;2023-02-23T00:43:55;10.68;;;9.57;;
23376;SDS011;14353;46.070;13.222;2023-02-23T00:46:23;11.25;;;9.73;;
23376;SDS011;14353;46.070;13.222;2023-02-23T00:48:53;10.52;;;9.02;;
23376;SDS011;14353;46.070;13.222;2023-02-23T00:51:21;11.00;;;9.70;;
23376;SDS011;14353;46.070;13.222;2023-02-23T00:53:52;10.63;;;9.52;;
23376;SDS011;14353;46.070;13.222;2023-02-23T00:56:19;10.55;;;9.48;;
23376;SDS011;14353;46.070;13.222;2023-02-23T00:58:46;10.82;;;9.70;;
23376;SDS011;14353;46.070;13.222;2023-02-23T01:01:12;11.18;;;9.95;;
23376;SDS011;14353;46.070;13.222;2023-02-23T01:03:42;10.60;;;9.38;;
23376;SDS011;14353;46.070;13.222;2023-02-23T01:06:10;11.02;;;9.90;;
23376;SDS011;14353;46.070;13.222;2023-02-23T01:08:38;11.32;;;10.13;;
23376;SDS011;14353;46.070;13.222;2023-02-23T01:11:10;10.35;;;9.25;;
23376;SDS011;14353;46.070;13.222;2023-02-23T01:13:38;11.13;;;9.93;;
23376;SDS011;14353;46.070;13.222;2023-02-23T01:16:06;10.05;;;9.02;;
23376;SDS011;14353;46.070;13.222;2023-02-23T01:18:35;10.60;;;9.50;;
23376;SDS011;14353;46.070;13.222;2023-02-23T01:21:02;10.77;;;9.63;;
23376;SDS011;14353;46.070;13.222;2023-02-23T01:23:31;11.60;;;10.00;;
23376;SDS011;14353;46.070;13.222;2023-02-23T01:25:57;10.77;;;9.68;;
23376;SDS011;14353;46.070;13.222;2023-02-23T01:28:23;11.23;;;9.85;;
23376;SDS011;14353;46.070;13.222;2023-02-23T01:30:49;11.32;;;10.13;;
23376;SDS011;14353;46.070;13.222;2023-02-23T01:33:15;12.18;;;10.00;;
23376;SDS011;14353;46.070;13.222;2023-02-23T01:35:41;11.38;;;10.02;;
23376;SDS011;14353;46.070;13.222;2023-02-23T01:38:07;10.73;;;9.63;;
23376;SDS011;14353;46.070;13.222;2023-02-23T01:40:34;11.63;;;10.35;;
23376;SDS011;14353;46.070;13.222;2023-02-23T01:43:13;11.23;;;9.77;;
23376;SDS011;14353;46.070;13.222;2023-02-23T01:45:41;11.05;;;9.77;;
23376;SDS011;14353;46.070;13.222;2023-02-23T01:48:19;11.27;;;10.05;;
23376;SDS011;14353;46.070;13.222;2023-02-23T01:51:06;11.23;;;10.02;;
23376;SDS011;14353;46.070;13.222;2023-02-23T01:53:35;11.63;;;10.02;;
23376;SDS011;14353;46.070;13.222;2023-02-23T01:56:07;11.25;;;10.05;;
23376;SDS011;14353;46.070;13.222;2023-02-23T01:58:36;10.77;;;9.45;;
23376;SDS011;14353;46.070;13.222;2023-02-23T02:01:05;11.07;;;9.73;;
23376;SDS011;14353;46.070;13.222;2023-02-23T02:03:38;11.18;;;9.68;;
23376;SDS011;14353;46.070;13.222;2023-02-23T02:06:11;11.88;;;10.32;;
23376;SDS011;14353;46.070;13.222;2023-02-23T02:08:39;11.23;;;10.02;;
23376;SDS011;14353;46.070;13.222;2023-02-23T02:11:15;10.98;;;9.77;;
23376;SDS011;14353;46.070;13.222;2023-02-23T02:13:58;11.27;;;10.07;;
23376;SDS011;14353;46.070;13.222;2023-02-23T02:25:38;11.85;;;10.27;;
23376;SDS011;14353;46.070;13.222;2023-02-23T02:44:01;11.32;;;10.15;;
23376;SDS011;14353;46.070;13.222;2023-02-23T02:46:40;11.45;;;10.25;;
23376;SDS011;14353;46.070;13.222;2023-02-23T02:49:18;11.40;;;10.20;;
23376;SDS011;14353;46.070;13.222;2023-02-23T02:52:00;12.05;;;10.77;;
23376;SDS011;14353;46.070;13.222;2023-02-23T02:54:35;12.00;;;10.80;;
23376;SDS011;14353;46.070;13.222;2023-02-23T02:57:05;12.30;;;11.00;;
23376;SDS011;14353;46.070;13.222;2023-02-23T02:59:34;11.80;;;10.55;;
23376;SDS011;14353;46.070;13.222;2023-02-23T03:02:30;11.20;;;10.07;;
23376;SDS011;14353;46.070;13.222;2023-02-23T03:05:17;12.02;;;10.20;;
23376;SDS011;14353;46.070;13.222;2023-02-23T03:08:10;11.57;;;10.38;;
23376;SDS011;14353;46.070;13.222;2023-02-23T03:11:06;12.25;;;10.75;;
23376;SDS011;14353;46.070;13.222;2023-02-23T03:23:23;12.02;;;10.52;;
23376;SDS011;14353;46.070;13.222;2023-02-23T03:32:16;11.70;;;10.50;;
23376;SDS011;14353;46.070;13.222;2023-02-23T03:35:05;12.27;;;10.23;;
23376;SDS011;14353;46.070;13.222;2023-02-23T03:40:48;11.80;;;10.35;;
23376;SDS011;14353;46.070;13.222;2023-02-23T03:43:48;12.48;;;10.65;;
23376;SDS011;14353;46.070;13.222;2023-02-23T03:46:37;12.23;;;10.80;;
23376;SDS011;14353;46.070;13.222;2023-02-23T03:49:23;11.57;;;10.38;;
23376;SDS011;14353;46.070;13.222;2023-02-23T03:52:15;12.63;;;10.80;;
23376;SDS011;14353;46.070;13.222;2023-02-23T03:55:11;13.02;;;11.00;;
23376;SDS011;14353;46.070;13.222;2023-02-23T03:58:04;11.60;;;10.40;;
23376;SDS011;14353;46.070;13.222;2023-02-23T04:00:51;12.20;;;10.30;;
23376;SDS011;14353;46.070;13.222;2023-02-23T04:03:38;12.05;;;10.75;;
23376;SDS011;14353;46.070;13.222;2023-02-23T04:06:25;11.45;;;10.25;;
23376;SDS011;14353;46.070;13.222;2023-02-23T04:09:12;11.60;;;10.40;;
23376;SDS011;14353;46.070;13.222;2023-02-23T04:12:02;11.55;;;10.35;;
23376;SDS011;14353;46.070;13.222;2023-02-23T04:15:00;12.02;;;10.60;;
23376;SDS011;14353;46.070;13.222;2023-02-23T04:17:51;12.45;;;11.15;;
23376;SDS011;14353;46.070;13.222;2023-02-23T04:20:18;12.95;;;10.48;;
23376;SDS011;14353;46.070;13.222;2023-02-23T04:22:44;11.60;;;10.40;;
23376;SDS011;14353;46.070;13.222;2023-02-23T04:25:10;11.93;;;10.70;;
23376;SDS011;14353;46.070;13.222;2023-02-23T04:27:37;12.38;;;11.07;;
23376;SDS011;14353;46.070;13.222;2023-02-23T04:30:03;12.43;;;11.10;;
23376;SDS011;14353;46.070;13.222;2023-02-23T04:32:29;12.38;;;11.05;;
23376;SDS011;14353;46.070;13.222;2023-02-23T04:34:56;12.38;;;10.68;;
23376;SDS011;14353;46.070;13.222;2023-02-23T04:37:21;12.00;;;10.57;;
23376;SDS011;14353;46.070;13.222;2023-02-23T04:39:47;12.23;;;10.52;;
23376;SDS011;14353;46.070;13.222;2023-02-23T04:42:17;11.98;;;10.68;;
23376;SDS011;14353;46.070;13.222;2023-02-23T04:44:43;12.10;;;10.90;;
23376;SDS011;14353;46.070;13.222;2023-02-23T04:47:10;11.82;;;10.30;;
23376;SDS011;14353;46.070;13.222;2023-02-23T04:49:38;11.77;;;10.52;;
23376;SDS011;14353;46.070;13.222;2023-02-23T04:52:03;11.75;;;10.55;;
23376;SDS011;14353;46.070;13.222;2023-02-23T04:54:29;11.95;;;10.65;;
23376;SDS011;14353;46.070;13.222;2023-02-23T04:56:55;12.05;;;10.75;;
23376;SDS011;14353;46.070;13.222;2023-02-23T04:59:21;11.90;;;10.52;;
23376;SDS011;14353;46.070;13.222;2023-02-23T05:01:47;12.13;;;10.85;;
23376;SDS011;14353;46.070;13.222;2023-02-23T05:04:13;12.35;;;11.05;;
23376;SDS011;14353;46.070;13.222;2023-02-23T05:06:38;11.55;;;10.35;;
23376;SDS011;14353;46.070;13.222;2023-02-23T05:09:04;11.65;;;10.45;;
23376;SDS011;14353;46.070;13.222;2023-02-23T05:11:31;12.15;;;10.80;;
23376;SDS011;14353;46.070;13.222;2023-02-23T05:13:57;12.77;;;10.98;;
23376;SDS011;14353;46.070;13.222;2023-02-23T05:16:23;12.50;;;11.00;;
23376;SDS011;14353;46.070;13.222;2023-02-23T05:18:48;12.50;;;10.88;;
23376;SDS011;14353;46.070;13.222;2023-02-23T05:21:14;12.18;;;10.63;;
23376;SDS011;14353;46.070;13.222;2023-02-23T05:23:40;11.10;;;10.00;;
23376;SDS011;14353;46.070;13.222;2023-02-23T05:26:08;11.70;;;10.50;;
23376;SDS011;14353;46.070;13.222;2023-02-23T05:28:36;12.98;;;11.20;;
23376;SDS011;14353;46.070;13.222;2023-02-23T05:31:04;12.38;;;10.85;;
23376;SDS011;14353;46.070;13.222;2023-02-23T05:33:31;12.18;;;10.98;;
23376;SDS011;14353;46.070;13.222;2023-02-23T05:35:57;11.88;;;10.68;;
23376;SDS011;14353;46.070;13.222;2023-02-23T05:38:23;11.40;;;10.20;;
23376;SDS011;14353;46.070;13.222;2023-02-23T05:40:50;11.57;;;10.23;;
23376;SDS011;14353;46.070;13.222;2023-02-23T05:43:15;11.70;;;10.32;;
23376;SDS011;14353;46.070;13.222;2023-02-23T05:45:42;12.15;;;10.80;;
23376;SDS011;14353;46.070;13.222;2023-02-23T05:48:09;12.25;;;10.70;;
23376;SDS011;14353;46.070;13.222;2023-02-23T05:50:35;11.90;;;10.70;;
23376;SDS011;14353;46.070;13.222;2023-02-23T05:53:01;12.02;;;10.75;;
23376;SDS011;14353;46.070;13.222;2023-02-23T05:55:27;11.93;;;10.05;;
23376;SDS011;14353;46.070;13.222;2023-02-23T05:57:53;11.77;;;10.57;;
23376;SDS011;14353;46.070;13.222;2023-02-23T06:00:19;11.45;;;10.25;;
23376;SDS011;14353;46.070;13.222;2023-02-23T06:02:45;11.45;;;10.30;;
23376;SDS011;14353;46.070;13.222;2023-02-23T06:05:11;11.77;;;10.48;;
23376;SDS011;14353;46.070;13.222;2023-02-23T06:07:38;12.40;;;11.05;;
23376;SDS011;14353;46.070;13.222;2023-02-23T06:10:04;11.43;;;10.23;;
23376;SDS011;14353;46.070;13.222;2023-02-23T06:12:31;12.77;;;10.63;;
23376;SDS011;14353;46.070;13.222;2023-02-23T06:14:56;11.60;;;10.40;;
23376;SDS011;14353;46.070;13.222;2023-02-23T06:17:22;12.32;;;10.75;;
23376;SDS011;14353;46.070;13.222;2023-02-23T06:19:48;11.40;;;10.20;;
23376;SDS011;14353;46.070;13.222;2023-02-23T06:22:14;11.50;;;10.30;;
23376;SDS011;14353;46.070;13.222;2023-02-23T06:24:44;11.98;;;10.77;;
23376;SDS011;14353;46.070;13.222;2023-02-23T06:27:09;12.80;;;11.30;;
23376;SDS011;14353;46.070;13.222;2023-02-23T06:29:36;11.65;;;10.45;;
23376;SDS011;14353;46.070;13.222;2023-02-23T06:32:02;10.80;;;9.70;;
23376;SDS011;14353;46.070;13.222;2023-02-23T06:34:29;12.10;;;10.80;;
23376;SDS011;14353;46.070;13.222;2023-02-23T06:36:54;11.60;;;10.40;;
23376;SDS011;14353;46.070;13.222;2023-02-23T06:39:20;11.95;;;10.75;;
23376;SDS011;14353;46.070;13.222;2023-02-23T06:41:46;10.88;;;9.77;;
23376;SDS011;14353;46.070;13.222;2023-02-23T06:44:12;12.38;;;11.02;;
23376;SDS011;14353;46.070;13.222;2023-02-23T06:46:37;11.20;;;9.88;;
23376;SDS011;14353;46.070;13.222;2023-02-23T06:49:03;11.82;;;10.63;;
23376;SDS011;14353;46.070;13.222;2023-02-23T06:51:29;11.98;;;10.68;;
23376;SDS011;14353;46.070;13.222;2023-02-23T06:53:55;12.00;;;10.77;;
23376;SDS011;14353;46.070;13.222;2023-02-23T06:56:21;12.35;;;10.52;;
23376;SDS011;14353;46.070;13.222;2023-02-23T06:58:47;12.25;;;10.95;;
23376;SDS011;14353;46.070;13.222;2023-02-23T07:01:14;11.35;;;10.13;;
23376;SDS011;14353;46.070;13.222;2023-02-23T07:03:40;14.35;;;11.60;;
23376;SDS011;14353;46.070;13.222;2023-02-23T07:06:06;11.80;;;10.60;;
23376;SDS011;14353;46.070;13.222;2023-02-23T07:08:32;16.98;;;12.98;;
23376;SDS011;14353;46.070;13.222;2023-02-23T07:11:32;18.17;;;13.23;;
23376;SDS011;14353;46.070;13.222;2023-02-23T07:13:50;18.67;;;14.25;;
23376;SDS011;14353;46.070;13.222;2023-02-23T07:16:16;17.55;;;13.77;;
23376;SDS011;14353;46.070;13.222;2023-02-23T07:18:42;22.10;;;15.05;;
23376;SDS011;14353;46.070;13.222;2023-02-23T07:21:07;21.00;;;14.75;;
23376;SDS011;14353;46.070;13.222;2023-02-23T07:23:33;21.50;;;15.68;;
23376;SDS011;14353;46.070;13.222;2023-02-23T07:26:02;32.72;;;20.75;;
23376;SDS011;14353;46.070;13.222;2023-02-23T07:28:27;29.55;;;20.25;;
23376;SDS011;14353;46.070;13.222;2023-02-23T07:30:54;29.00;;;20.17;;
23376;SDS011;14353;46.070;13.222;2023-02-23T07:33:21;33.42;;;21.63;;
23376;SDS011;14353;46.070;13.222;2023-02-23T07:35:48;36.85;;;21.75;;
23376;SDS011;14353;46.070;13.222;2023-02-23T07:38:14;33.50;;;21.00;;
23376;SDS011;14353;46.070;13.222;2023-02-23T07:40:39;34.83;;;19.77;;
23376;SDS011;14353;46.070;13.222;2023-02-23T07:43:05;31.95;;;20.90;;
23376;SDS011;14353;46.070;13.222;2023-02-23T07:45:31;25.02;;;19.08;;
23376;SDS011;14353;46.070;13.222;2023-02-23T07:47:57;28.27;;;19.08;;
23376;SDS011;14353;46.070;13.222;2023-02-23T07:50:24;28.05;;;19.55;;
23376;SDS011;14353;46.070;13.222;2023-02-23T07:52:50;28.42;;;19.20;;
23376;SDS011;14353;46.070;13.222;2023-02-23T07:55:16;26.98;;;19.80;;
23376;SDS011;14353;46.070;13.222;2023-02-23T07:57:42;31.27;;;20.75;;
23376;SDS011;14353;46.070;13.222;2023-02-23T08:00:08;28.63;;;19.98;;
23376;SDS011;14353;46.070;13.222;2023-02-23T08:02:38;25.90;;;18.48;;
23376;SDS011;14353;46.070;13.222;2023-02-23T08:05:04;23.30;;;17.98;;
23376;SDS011;14353;46.070;13.222;2023-02-23T08:07:31;26.58;;;18.30;;
23376;SDS011;14353;46.070;13.222;2023-02-23T08:09:57;27.00;;;18.00;;
23376;SDS011;14353;46.070;13.222;2023-02-23T08:12:23;25.50;;;18.55;;
23376;SDS011;14353;46.070;13.222;2023-02-23T08:14:49;33.47;;;19.17;;
23376;SDS011;14353;46.070;13.222;2023-02-23T08:17:15;33.35;;;21.15;;
23376;SDS011;14353;46.070;13.222;2023-02-23T08:19:41;30.63;;;20.73;;
23376;SDS011;14353;46.070;13.222;2023-02-23T08:22:06;32.97;;;21.08;;
23376;SDS011;14353;46.070;13.222;2023-02-23T08:24:32;35.22;;;22.02;;
23376;SDS011;14353;46.070;13.222;2023-02-23T08:27:00;32.85;;;20.90;;
23376;SDS011;14353;46.070;13.222;2023-02-23T08:29:26;27.73;;;19.58;;
23376;SDS011;14353;46.070;13.222;2023-02-23T08:31:52;29.95;;;20.17;;
23376;SDS011;14353;46.070;13.222;2023-02-23T08:34:20;28.92;;;19.27;;
23376;SDS011;14353;46.070;13.222;2023-02-23T08:36:47;27.95;;;19.58;;
23376;SDS011;14353;46.070;13.222;2023-02-23T08:39:16;30.80;;;21.13;;
23376;SDS011;14353;46.070;13.222;2023-02-23T08:41:42;29.70;;;19.17;;
23376;SDS011;14353;46.070;13.222;2023-02-23T08:44:08;31.42;;;20.30;;
23376;SDS011;14353;46.070;13.222;2023-02-23T08:46:34;30.23;;;20.10;;
23376;SDS011;14353;46.070;13.222;2023-02-23T08:49:00;27.10;;;19.23;;
23376;SDS011;14353;46.070;13.222;2023-02-23T08:51:25;30.10;;;19.88;;
23376;SDS011;14353;46.070;13.222;2023-02-23T08:53:51;27.42;;;19.30;;
23376;SDS011;14353;46.070;13.222;2023-02-23T08:56:17;29.20;;;19.90;;
23376;SDS011;14353;46.070;13.222;2023-02-23T08:58:43;26.38;;;19.38;;
23376;SDS011;14353;46.070;13.222;2023-02-23T09:01:16;27.77;;;19.40;;
23376;SDS011;14353;46.070;13.222;2023-02-23T09:03:44;24.60;;;18.50;;
23376;SDS011;14353;46.070;13.222;2023-02-23T09:06:11;23.55;;;17.50;;
23376;SDS011;14353;46.070;13.222;2023-02-23T09:08:38;29.55;;;19.33;;
23376;SDS011;14353;46.070;13.222;2023-02-23T09:11:04;28.83;;;18.92;;
23376;SDS011;14353;46.070;13.222;2023-02-23T09:13:30;38.38;;;20.42;;
23376;SDS011;14353;46.070;13.222;2023-02-23T09:15:57;33.28;;;21.30;;
23376;SDS011;14353;46.070;13.222;2023-02-23T09:18:23;32.63;;;19.38;;
23376;SDS011;14353;46.070;13.222;2023-02-23T09:20:53;32.35;;;19.10;;
23376;SDS011;14353;46.070;13.222;2023-02-23T09:23:19;35.58;;;20.83;;
23376;SDS011;14353;46.070;13.222;2023-02-23T09:25:45;35.85;;;21.90;;
23376;SDS011;14353;46.070;13.222;2023-02-23T09:28:11;31.17;;;20.98;;
23376;SDS011;14353;46.070;13.222;2023-02-23T09:30:39;29.23;;;20.52;;
23376;SDS011;14353;46.070;13.222;2023-02-23T09:33:06;30.40;;;20.15;;
23376;SDS011;14353;46.070;13.222;2023-02-23T09:35:32;39.35;;;20.10;;
23376;SDS011;14353;46.070;13.222;2023-02-23T09:38:00;33.35;;;21.88;;
23376;SDS011;14353;46.070;13.222;2023-02-23T09:40:35;34.28;;;21.83;;
23376;SDS011;14353;46.070;13.222;2023-02-23T09:43:26;32.53;;;20.65;;
23376;SDS011;14353;46.070;13.222;2023-02-23T09:48:31;34.65;;;20.17;;
23376;SDS011;14353;46.070;13.222;2023-02-23T09:50:58;28.60;;;19.50;;
23376;SDS011;14353;46.070;13.222;2023-02-23T09:53:28;28.02;;;19.13;;
23376;SDS011;14353;46.070;13.222;2023-02-23T09:56:10;27.92;;;18.30;;
23376;SDS011;14353;46.070;13.222;2023-02-23T09:58:40;23.60;;;18.25;;
23376;SDS011;14353;46.070;13.222;2023-02-23T10:04:14;30.30;;;18.63;;
23376;SDS011;14353;46.070;13.222;2023-02-23T10:07:04;33.08;;;19.23;;
23376;SDS011;14353;46.070;13.222;2023-02-23T10:09:46;32.60;;;19.10;;
23376;SDS011;14353;46.070;13.222;2023-02-23T10:12:32;33.15;;;21.02;;
23376;SDS011;14353;46.070;13.222;2023-02-23T10:15:05;34.92;;;21.05;;
23376;SDS011;14353;46.070;13.222;2023-02-23T10:20:33;33.42;;;21.08;;
23376;SDS011;14353;46.070;13.222;2023-02-23T10:23:10;33.38;;;21.70;;
23376;SDS011;14353;46.070;13.222;2023-02-23T10:25:42;40.03;;;21.05;;
23376;SDS011;14353;46.070;13.222;2023-02-23T10:28:16;31.20;;;20.08;;
23376;SDS011;14353;46.070;13.222;2023-02-23T10:30:45;34.78;;;20.42;;
23376;SDS011;14353;46.070;13.222;2023-02-23T10:35:42;26.80;;;19.15;;
23376;SDS011;14353;46.070;13.222;2023-02-23T10:38:15;34.10;;;19.52;;
23376;SDS011;14353;46.070;13.222;2023-02-23T10:40:43;28.42;;;18.00;;
23376;SDS011;14353;46.070;13.222;2023-02-23T10:43:13;33.88;;;19.45;;
23376;SDS011;14353;46.070;13.222;2023-02-23T10:45:49;30.15;;;19.38;;
23376;SDS011;14353;46.070;13.222;2023-02-23T10:48:21;27.23;;;17.50;;
23376;SDS011;14353;46.070;13.222;2023-02-23T10:50:51;25.10;;;17.27;;
23376;SDS011;14353;46.070;13.222;2023-02-23T10:58:41;26.27;;;17.65;;
23376;SDS011;14353;46.070;13.222;2023-02-23T11:04:13;23.73;;;17.13;;
23376;SDS011;14353;46.070;13.222;2023-02-23T11:06:46;29.73;;;19.27;;
23376;SDS011;14353;46.070;13.222;2023-02-23T11:09:26;34.97;;;23.88;;
23376;SDS011;14353;46.070;13.222;2023-02-23T11:12:38;33.00;;;21.35;;
23376;SDS011;14353;46.070;13.222;2023-02-23T11:14:46;30.77;;;20.23;;
23376;SDS011;14353;46.070;13.222;2023-02-23T11:17:27;30.70;;;19.58;;
23376;SDS011;14353;46.070;13.222;2023-02-23T11:20:03;28.75;;;19.27;;
23376;SDS011;14353;46.070;13.222;2023-02-23T11:22:35;28.17;;;17.80;;
23376;SDS011;14353;46.070;13.222;2023-02-23T11:25:12;25.73;;;17.58;;
23376;SDS011;14353;46.070;13.222;2023-02-23T11:27:43;26.30;;;16.92;;
23376;SDS011;14353;46.070;13.222;2023-02-23T11:30:11;24.70;;;17.08;;
23376;SDS011;14353;46.070;13.222;2023-02-23T11:32:37;25.48;;;16.70;;
23376;SDS011;14353;46.070;13.222;2023-02-23T11:35:19;22.35;;;16.92;;
23376;SDS011;14353;46.070;13.222;2023-02-23T11:37:51;25.20;;;16.40;;
23376;SDS011;14353;46.070;13.222;2023-02-23T11:40:21;24.63;;;16.77;;
23376;SDS011;14353;46.070;13.222;2023-02-23T11:42:59;27.33;;;16.77;;
23376;SDS011;14353;46.070;13.222;2023-02-23T11:45:48;22.50;;;15.60;;
23376;SDS011;14353;46.070;13.222;2023-02-23T11:48:19;25.67;;;16.95;;
23376;SDS011;14353;46.070;13.222;2023-02-23T11:50:50;27.80;;;16.23;;
23376;SDS011;14353;46.070;13.222;2023-02-23T11:53:18;36.67;;;20.35;;
23376;SDS011;14353;46.070;13.222;2023-02-23T11:55:53;39.92;;;26.35;;
23376;SDS011;14353;46.070;13.222;2023-02-23T11:58:23;45.78;;;28.77;;
23376;SDS011;14353;46.070;13.222;2023-02-23T12:03:22;33.10;;;22.17;;
23376;SDS011;14353;46.070;13.222;2023-02-23T12:05:50;37.60;;;23.55;;
23376;SDS011;14353;46.070;13.222;2023-02-23T12:10:56;44.03;;;27.75;;
23376;SDS011;14353;46.070;13.222;2023-02-23T12:13:39;64.72;;;26.60;;
23376;SDS011;14353;46.070;13.222;2023-02-23T12:16:11;35.10;;;23.53;;
23376;SDS011;14353;46.070;13.222;2023-02-23T12:30:42;34.22;;;23.10;;
23376;SDS011;14353;46.070;13.222;2023-02-23T12:33:32;32.55;;;22.35;;
23376;SDS011;14353;46.070;13.222;2023-02-23T12:39:35;29.70;;;20.58;;
23376;SDS011;14353;46.070;13.222;2023-02-23T12:50:10;30.55;;;19.15;;
23376;SDS011;14353;46.070;13.222;2023-02-23T12:52:50;28.67;;;19.33;;
23376;SDS011;14353;46.070;13.222;2023-02-23T13:06:35;24.90;;;18.45;;
23376;SDS011;14353;46.070;13.222;2023-02-23T13:22:44;22.40;;;17.05;;
23376;SDS011;14353;46.070;13.222;2023-02-23T13:27:57;25.50;;;17.77;;
23376;SDS011;14353;46.070;13.222;2023-02-23T13:30:25;25.02;;;17.67;;
23376;SDS011;14353;46.070;13.222;2023-02-23T13:32:56;25.10;;;17.10;;
23376;SDS011;14353;46.070;13.222;2023-02-23T13:35:26;20.80;;;16.55;;
23376;SDS011;14353;46.070;13.222;2023-02-23T13:40:45;23.92;;;16.52;;
23376;SDS011;14353;46.070;13.222;2023-02-23T13:43:56;20.88;;;16.02;;
23376;SDS011;14353;46.070;13.222;2023-02-23T13:46:40;25.15;;;16.75;;
23376;SDS011;14353;46.070;13.222;2023-02-23T13:49:27;21.00;;;16.52;;
23376;SDS011;14353;46.070;13.222;2023-02-23T13:54:58;19.42;;;15.60;;
23376;SDS011;14353;46.070;13.222;2023-02-23T13:57:28;20.90;;;16.33;;
23376;SDS011;14353;46.070;13.222;2023-02-23T13:59:55;26.17;;;15.95;;
23376;SDS011;14353;46.070;13.222;2023-02-23T14:02:30;21.85;;;16.60;;
23376;SDS011;14353;46.070;13.222;2023-02-23T14:05:03;23.40;;;17.10;;
23376;SDS011;14353;46.070;13.222;2023-02-23T14:07:46;23.02;;;16.58;;
23376;SDS011;14353;46.070;13.222;2023-02-23T14:10:19;22.15;;;16.33;;
23376;SDS011;14353;46.070;13.222;2023-02-23T14:18:05;21.48;;;15.80;;
23376;SDS011;14353;46.070;13.222;2023-02-23T14:24:15;19.25;;;15.80;;
23376;SDS011;14353;46.070;13.222;2023-02-23T14:26:44;19.48;;;15.18;;
23376;SDS011;14353;46.070;13.222;2023-02-23T14:29:24;20.77;;;15.18;;
23376;SDS011;14353;46.070;13.222;2023-02-23T14:32:00;19.38;;;15.00;;
23376;SDS011;14353;46.070;13.222;2023-02-23T14:37:41;20.63;;;15.65;;
23376;SDS011;14353;46.070;13.222;2023-02-23T14:40:17;21.65;;;15.93;;
23376;SDS011;14353;46.070;13.222;2023-02-23T14:42:50;18.60;;;15.57;;
23376;SDS011;14353;46.070;13.222;2023-02-23T14:45:18;18.98;;;15.32;;
23376;SDS011;14353;46.070;13.222;2023-02-23T14:47:51;18.38;;;14.75;;
23376;SDS011;14353;46.070;13.222;2023-02-23T14:50:26;19.50;;;15.02;;
23376;SDS011;14353;46.070;13.222;2023-02-23T14:52:55;19.30;;;15.23;;
23376;SDS011;14353;46.070;13.222;2023-02-23T14:57:47;20.33;;;15.70;;
23376;SDS011;14353;46.070;13.222;2023-02-23T15:03:08;19.00;;;15.65;;
23376;SDS011;14353;46.070;13.222;2023-02-23T15:05:41;18.40;;;14.52;;
23376;SDS011;14353;46.070;13.222;2023-02-23T15:08:20;19.35;;;14.90;;
23376;SDS011;14353;46.070;13.222;2023-02-23T15:10:52;19.05;;;15.05;;
23376;SDS011;14353;46.070;13.222;2023-02-23T15:13:35;18.70;;;14.65;;
23376;SDS011;14353;46.070;13.222;2023-02-23T15:16:07;18.27;;;13.85;;
23376;SDS011;14353;46.070;13.222;2023-02-23T15:18:50;19.77;;;14.25;;
23376;SDS011;14353;46.070;13.222;2023-02-23T15:21:18;19.40;;;14.98;;
23376;SDS011;14353;46.070;13.222;2023-02-23T15:23:47;17.45;;;13.93;;
23376;SDS011;14353;46.070;13.222;2023-02-23T15:26:25;18.80;;;14.05;;
23376;SDS011;14353;46.070;13.222;2023-02-23T15:29:01;22.85;;;16.88;;
23376;SDS011;14353;46.070;13.222;2023-02-23T15:31:30;30.13;;;21.50;;
23376;SDS011;14353;46.070;13.222;2023-02-23T15:33:56;34.03;;;23.45;;
23376;SDS011;14353;46.070;13.222;2023-02-23T15:36:25;33.60;;;23.05;;
23376;SDS011;14353;46.070;13.222;2023-02-23T15:38:54;39.55;;;25.35;;
23376;SDS011;14353;46.070;13.222;2023-02-23T15:44:04;32.75;;;23.88;;
23376;SDS011;14353;46.070;13.222;2023-02-23T15:46:44;35.63;;;23.08;;
23376;SDS011;14353;46.070;13.222;2023-02-23T15:49:16;37.97;;;25.35;;
23376;SDS011;14353;46.070;13.222;2023-02-23T15:51:48;34.78;;;23.20;;
23376;SDS011;14353;46.070;13.222;2023-02-23T15:56:54;35.80;;;24.27;;
23376;SDS011;14353;46.070;13.222;2023-02-23T15:59:25;30.05;;;22.05;;
23376;SDS011;14353;46.070;13.222;2023-02-23T16:01:53;29.35;;;20.77;;
23376;SDS011;14353;46.070;13.222;2023-02-23T16:04:22;29.02;;;21.02;;
23376;SDS011;14353;46.070;13.222;2023-02-23T16:06:55;30.40;;;20.38;;
23376;SDS011;14353;46.070;13.222;2023-02-23T16:09:45;28.80;;;19.75;;
23376;SDS011;14353;46.070;13.222;2023-02-23T16:12:27;26.55;;;20.27;;
23376;SDS011;14353;46.070;13.222;2023-02-23T16:15:04;26.83;;;19.40;;
23376;SDS011;14353;46.070;13.222;2023-02-23T16:17:44;27.98;;;20.50;;
23376;SDS011;14353;46.070;13.222;2023-02-23T16:22:58;33.67;;;22.50;;
23376;SDS011;14353;46.070;13.222;2023-02-23T16:25:27;32.22;;;22.55;;
23376;SDS011;14353;46.070;13.222;2023-02-23T16:28:16;31.45;;;21.50;;
23376;SDS011;14353;46.070;13.222;2023-02-23T16:30:43;30.38;;;20.70;;
23376;SDS011;14353;46.070;13.222;2023-02-23T16:33:22;28.73;;;20.63;;
23376;SDS011;14353;46.070;13.222;2023-02-23T16:35:50;29.33;;;20.27;;
23376;SDS011;14353;46.070;13.222;2023-02-23T16:38:33;30.15;;;20.38;;
23376;SDS011;14353;46.070;13.222;2023-02-23T16:41:04;36.28;;;20.20;;
23376;SDS011;14353;46.070;13.222;2023-02-23T16:43:34;31.58;;;20.65;;
23376;SDS011;14353;46.070;13.222;2023-02-23T16:46:00;25.30;;;19.08;;
23376;SDS011;14353;46.070;13.222;2023-02-23T16:48:26;27.27;;;20.30;;
23376;SDS011;14353;46.070;13.222;2023-02-23T16:50:52;28.27;;;19.83;;
23376;SDS011;14353;46.070;13.222;2023-02-23T16:53:17;26.00;;;19.38;;
23376;SDS011;14353;46.070;13.222;2023-02-23T16:55:48;26.35;;;17.95;;
23376;SDS011;14353;46.070;13.222;2023-02-23T16:58:20;25.67;;;18.95;;
23376;SDS011;14353;46.070;13.222;2023-02-23T17:00:48;23.90;;;16.90;;
23376;SDS011;14353;46.070;13.222;2023-02-23T17:03:20;22.85;;;17.27;;
23376;SDS011;14353;46.070;13.222;2023-02-23T17:05:50;24.60;;;17.85;;
23376;SDS011;14353;46.070;13.222;2023-02-23T17:08:16;24.58;;;17.83;;